Time;durP1;ratioP1;P1;durP2;ratioP2;P2;SDS_P1;SDS_P2;PMS_P1;PMS_P2;Temp;Humidity;BMP_temperature;BMP_pressure;BME280_temperature;BME280_humidity;BME280_pressure;Samples;Min_cycle;Max_cycle;Signal;HPM_P1;HPM_P2
2023/03/05 00:02:14;;;;;;;65.32;37.50;;;;;;;9.85;72.48;100283.72;5011932;28;20021;-81
2023/03/05 00:04:39;;;;;;;77.13;37.67;;;;;;;9.75;71.95;100271.19;4973462;28;20121;-83
2023/03/05 00:07:07;;;;;;;60.88;35.38;;;;;;;9.76;71.46;100287.16;4992238;28;20034;-83
2023/03/05 00:09:33;;;;;;;68.55;36.13;;;;;;;9.74;71.68;100290.97;4973966;28;20045;-82
2023/03/05 00:11:58;;;;;;;68.65;37.15;;;;;;;9.72;71.99;100293.75;4991987;28;20034;-83
2023/03/05 00:14:24;;;;;;;54.42;32.75;;;;;;;9.75;71.34;100282.75;4992797;28;20034;-81
2023/03/05 00:16:49;;;;;;;57.50;32.65;;;;;;;9.70;71.51;100282.31;4992768;28;20026;-82
2023/03/05 00:19:15;;;;;;;55.10;30.73;;;;;;;9.63;71.34;100262.31;5002753;28;20041;-81
2023/03/05 00:21:41;;;;;;;56.92;31.33;;;;;;;9.69;70.83;100283.28;5011147;28;20335;-81
2023/03/05 00:24:17;;;;;;;57.65;32.85;;;;;;;9.65;71.22;100272.94;5011190;28;20079;-81
2023/03/05 00:26:44;;;;;;;52.45;31.98;;;;;;;9.67;70.90;100279.88;5011723;28;20034;-82
2023/03/05 00:29:14;;;;;;;56.55;30.35;;;;;;;9.65;70.77;100272.94;5011552;28;20489;-82
2023/03/05 00:31:39;;;;;;;55.60;32.05;;;;;;;9.65;71.30;100264.88;5011677;28;20022;-81
2023/03/05 00:34:12;;;;;;;52.58;32.20;;;;;;;9.73;71.15;100270.47;5011579;28;20029;-82
2023/03/05 00:36:43;;;;;;;66.78;34.10;;;;;;;9.71;71.43;100259.00;5012080;28;20034;-83
2023/03/05 00:39:10;;;;;;;53.25;35.22;;;;;;;9.77;71.18;100270.09;5011114;28;20120;-81
2023/03/05 00:41:35;;;;;;;59.78;34.63;;;;;;;9.80;71.00;100258.22;5011645;28;20057;-81
2023/03/05 00:44:00;;;;;;;55.53;34.13;;;;;;;9.74;70.84;100242.63;5011387;28;20072;-81
2023/03/05 00:46:26;;;;;;;68.63;37.83;;;;;;;9.83;71.38;100269.56;5022992;28;20034;-82
2023/03/05 00:48:52;;;;;;;65.00;36.70;;;;;;;9.87;70.87;100263.94;5024452;28;20033;-82
2023/03/05 00:51:19;;;;;;;67.63;40.67;;;;;;;9.90;71.25;100258.31;5017012;28;20933;-83
2023/03/05 00:53:44;;;;;;;79.53;48.00;;;;;;;9.90;71.04;100256.47;5011048;28;20061;-81
2023/03/05 00:56:10;;;;;;;89.93;51.90;;;;;;;9.89;71.58;100261.97;5011750;28;20168;-81
2023/03/05 00:58:35;;;;;;;78.03;46.88;;;;;;;9.90;71.39;100258.31;5011140;28;20030;-82
2023/03/05 01:01:01;;;;;;;81.30;51.70;;;;;;;9.95;71.42;100264.13;5011647;28;20527;-83
2023/03/05 01:03:28;;;;;;;83.10;49.47;;;;;;;9.99;71.08;100265.59;5011257;28;20044;-82
2023/03/05 01:05:55;;;;;;;71.13;46.33;;;;;;;10.03;70.71;100269.72;5010964;28;20026;-82
2023/03/05 01:08:20;;;;;;;70.38;45.85;;;;;;;10.00;70.44;100264.63;5010913;28;20148;-83
2023/03/05 01:10:46;;;;;;;70.75;43.50;;;;;;;9.82;70.01;100258.94;5010572;28;20057;-83
2023/03/05 01:13:11;;;;;;;72.80;43.53;;;;;;;9.64;70.64;100247.06;4980051;28;20041;-82
2023/03/05 01:15:37;;;;;;;67.75;41.55;;;;;;;9.73;70.25;100252.50;5012036;28;20084;-81
2023/03/05 01:18:02;;;;;;;66.50;40.45;;;;;;;9.70;70.01;100252.78;4992530;28;20061;-81
2023/03/05 01:20:28;;;;;;;64.47;36.42;;;;;;;9.72;69.99;100250.78;5011557;28;20037;-82
2023/03/05 01:22:53;;;;;;;60.22;38.90;;;;;;;9.72;69.47;100256.16;5003984;28;20080;-82
2023/03/05 01:25:19;;;;;;;61.30;39.58;;;;;;;9.69;69.39;100255.59;5001093;28;20077;-81
2023/03/05 01:27:45;;;;;;;61.92;35.63;;;;;;;9.61;69.81;100258.91;5015573;28;20022;-80
2023/03/05 01:30:13;;;;;;;59.97;37.20;;;;;;;9.58;69.79;100264.53;5016327;28;20038;-81
2023/03/05 01:32:38;;;;;;;68.00;41.30;;;;;;;9.61;70.14;100261.59;5008233;28;20049;-82
2023/03/05 01:35:05;;;;;;;53.40;35.17;;;;;;;9.57;69.69;100273.56;5031391;28;20026;-82
2023/03/05 01:37:30;;;;;;;63.13;37.15;;;;;;;9.48;69.59;100274.31;5022437;28;20108;-82
2023/03/05 01:39:56;;;;;;;70.38;40.45;;;;;;;9.49;69.63;100273.34;5011714;28;20549;-81
2023/03/05 01:42:21;;;;;;;68.85;41.88;;;;;;;9.41;69.94;100286.56;5010810;28;20036;-82
2023/03/05 01:45:11;;;;;;;68.20;39.53;;;;;;;9.23;70.46;100271.97;5017724;28;20041;-81
2023/03/05 01:47:37;;;;;;;57.28;36.05;;;;;;;8.90;71.00;100285.41;5024484;28;20030;-82
2023/03/05 01:50:06;;;;;;;76.00;38.45;;;;;;;8.55;71.32;100272.97;5018622;28;20080;-82
2023/03/05 01:52:34;;;;;;;75.05;38.88;;;;;;;8.59;72.61;100281.63;5001020;28;20049;-82
2023/03/05 01:55:03;;;;;;;67.82;38.30;;;;;;;8.55;72.83;100286.38;4990699;28;20140;-82
2023/03/05 01:57:41;;;;;;;61.47;38.13;;;;;;;8.46;72.81;100281.72;4994385;28;20055;-82
2023/03/05 02:00:10;;;;;;;66.05;37.72;;;;;;;8.27;73.21;100273.38;5004537;28;20194;-81
2023/03/05 02:02:36;;;;;;;68.82;37.90;;;;;;;8.45;73.58;100289.88;5010301;28;20030;-82
2023/03/05 02:05:05;;;;;;;66.72;38.75;;;;;;;8.47;73.46;100280.75;5009790;28;20029;-82
2023/03/05 02:07:32;;;;;;;62.25;36.67;;;;;;;8.53;73.46;100284.78;4992198;28;20408;-81
2023/03/05 02:09:57;;;;;;;65.50;35.75;;;;;;;8.48;73.67;100277.09;5009622;28;20029;-81
2023/03/05 02:12:23;;;;;;;62.88;36.25;;;;;;;8.60;73.71;100278.81;5009499;28;20056;-81
2023/03/05 02:14:57;;;;;;;67.55;37.47;;;;;;;8.56;73.20;100277.34;5009746;28;20030;-81
2023/03/05 02:17:25;;;;;;;67.53;37.47;;;;;;;8.51;72.90;100266.13;4990772;28;20038;-81
2023/03/05 02:20:02;;;;;;;57.92;36.13;;;;;;;8.62;72.85;100289.44;5008598;28;20022;-81
2023/03/05 02:22:27;;;;;;;66.50;39.22;;;;;;;8.52;73.21;100273.22;5009467;28;20042;-81
2023/03/05 02:24:52;;;;;;;63.55;37.40;;;;;;;8.67;72.60;100285.41;5010235;28;20501;-81
2023/03/05 02:27:23;;;;;;;55.35;34.97;;;;;;;8.68;72.03;100289.78;5009668;28;20528;-82
2023/03/05 02:29:50;;;;;;;47.92;27.80;;;;;;;8.65;72.43;100290.00;5009935;28;20033;-81
2023/03/05 02:32:16;;;;;;;62.40;30.10;;;;;;;8.64;72.66;100298.19;5009904;28;20430;-81
2023/03/05 02:34:41;;;;;;;49.70;27.38;;;;;;;8.69;72.92;100290.63;5009851;28;20029;-82
2023/03/05 02:37:09;;;;;;;55.80;28.92;;;;;;;8.66;72.50;100283.69;5009848;28;20485;-81
2023/03/05 02:39:34;;;;;;;41.65;25.15;;;;;;;8.74;72.09;100278.56;5013870;28;20033;-83
2023/03/05 02:42:00;;;;;;;39.58;23.75;;;;;;;8.90;72.31;100296.16;5013087;28;20164;-82
2023/03/05 02:44:25;;;;;;;45.50;23.55;;;;;;;8.91;71.69;100279.06;5023152;28;20037;-81
2023/03/05 02:46:52;;;;;;;54.33;22.50;;;;;;;8.99;71.47;100292.72;5029075;28;20030;-82
2023/03/05 02:49:17;;;;;;;50.35;24.70;;;;;;;8.99;71.30;100298.09;5021349;28;20034;-81
2023/03/05 02:51:43;;;;;;;46.28;26.60;;;;;;;8.90;71.45;100282.75;5013566;28;20032;-83
2023/03/05 02:54:08;;;;;;;53.65;27.40;;;;;;;8.94;70.94;100300.28;5013595;28;20034;-81
2023/03/05 02:56:34;;;;;;;44.95;27.20;;;;;;;8.86;71.18;100292.00;5013199;28;20033;-81
2023/03/05 02:58:59;;;;;;;48.83;30.00;;;;;;;8.88;71.00;100292.72;5012862;28;20052;-81
2023/03/05 03:01:27;;;;;;;45.53;25.13;;;;;;;8.65;71.21;100283.81;5013307;28;20029;-81
2023/03/05 03:03:53;;;;;;;58.42;28.75;;;;;;;8.68;71.19;100297.81;5013336;28;20092;-81
2023/03/05 03:06:18;;;;;;;51.50;30.23;;;;;;;8.75;71.26;100312.44;5012629;28;20034;-81
2023/03/05 03:08:44;;;;;;;58.25;31.33;;;;;;;8.74;71.18;100302.69;5013059;28;20127;-81
2023/03/05 03:11:13;;;;;;;54.92;31.27;;;;;;;8.73;71.04;100302.84;5012993;28;20026;-81
2023/03/05 03:13:40;;;;;;;57.03;29.85;;;;;;;8.62;71.09;100300.97;4997083;28;20034;-81
2023/03/05 03:16:08;;;;;;;58.13;32.80;;;;;;;8.44;71.66;100302.41;4941635;28;20050;-81
2023/03/05 03:18:34;;;;;;;49.55;29.75;;;;;;;8.35;71.79;100300.44;4973697;28;20088;-81
2023/03/05 03:21:00;;;;;;;57.88;31.13;;;;;;;8.28;72.16;100306.41;4973742;28;20062;-81
2023/03/05 03:23:26;;;;;;;50.97;29.20;;;;;;;8.24;72.10;100300.41;5009404;28;20096;-82
2023/03/05 03:25:51;;;;;;;61.55;33.88;;;;;;;8.13;72.62;100297.72;5012288;28;20030;-81
2023/03/05 03:28:17;;;;;;;57.85;29.52;;;;;;;7.92;73.09;100302.84;5011776;28;20410;-83
2023/03/05 03:30:42;;;;;;;58.78;31.67;;;;;;;7.98;73.34;100293.53;4996493;28;20037;-82
2023/03/05 03:33:08;;;;;;;68.90;33.60;;;;;;;8.07;73.30;100303.53;4992860;28;20096;-82
2023/03/05 03:35:34;;;;;;;61.35;32.92;;;;;;;8.12;73.86;100309.38;4992608;28;20026;-82
2023/03/05 03:37:59;;;;;;;75.22;40.03;;;;;;;7.96;74.03;100307.00;4993043;28;20031;-81
2023/03/05 03:40:25;;;;;;;65.35;35.15;;;;;;;7.92;73.85;100310.88;4992966;28;20027;-81
2023/03/05 03:42:51;;;;;;;67.45;35.20;;;;;;;7.79;73.59;100303.91;4998558;28;20431;-80
2023/03/05 03:45:17;;;;;;;70.13;33.17;;;;;;;7.83;74.29;100300.03;5010774;28;20023;-82
2023/03/05 03:47:42;;;;;;;66.07;34.05;;;;;;;7.82;74.55;100303.69;5000215;28;20038;-83
2023/03/05 03:50:08;;;;;;;65.78;32.00;;;;;;;7.72;74.39;100294.63;4981996;28;20029;-80
2023/03/05 03:52:35;;;;;;;74.10;32.83;;;;;;;7.77;75.00;100295.16;5009605;28;20054;-80
2023/03/05 03:55:00;;;;;;;65.40;32.92;;;;;;;7.80;74.52;100300.28;4997563;28;20049;-80
2023/03/05 03:57:32;;;;;;;57.65;32.10;;;;;;;7.85;74.77;100308.78;5014730;28;20022;-80
2023/03/05 03:59:57;;;;;;;55.60;29.05;;;;;;;7.81;75.19;100302.81;5014838;28;20449;-81
2023/03/05 04:02:23;;;;;;;55.30;30.33;;;;;;;7.70;75.25;100297.44;5011962;28;20042;-81
2023/03/05 04:04:49;;;;;;;53.22;30.00;;;;;;;7.74;75.06;100300.69;5012025;28;20394;-81
2023/03/05 04:07:14;;;;;;;50.28;27.38;;;;;;;7.89;74.82;100305.75;4971651;28;20125;-80
2023/03/05 04:09:40;;;;;;;46.75;25.88;;;;;;;7.88;75.20;100282.66;4970654;28;20091;-82
2023/03/05 04:12:06;;;;;;;53.03;26.80;;;;;;;7.94;74.91;100292.03;4970072;28;20039;-81
2023/03/05 04:14:31;;;;;;;64.22;27.95;;;;;;;8.04;74.42;100287.69;4970274;28;20490;-81
2023/03/05 04:16:56;;;;;;;59.25;28.70;;;;;;;8.11;74.59;100299.63;4970341;28;20078;-80
2023/03/05 04:19:22;;;;;;;50.58;26.48;;;;;;;8.09;74.60;100281.03;4970358;28;20462;-81
2023/03/05 04:21:47;;;;;;;58.17;28.27;;;;;;;8.11;73.54;100279.06;4986395;28;20146;-81
2023/03/05 04:24:14;;;;;;;59.70;26.13;;;;;;;8.15;74.15;100285.03;4988458;28;20026;-83
2023/03/05 04:26:39;;;;;;;54.38;26.60;;;;;;;8.17;73.77;100283.94;4956725;28;20580;-81
2023/03/05 04:29:05;;;;;;;52.75;26.67;;;;;;;8.17;74.12;100278.59;4989246;28;20082;-82
2023/03/05 04:31:30;;;;;;;49.65;28.13;;;;;;;8.28;73.90;100269.78;4975084;28;20031;-82
2023/03/05 04:33:55;;;;;;;56.38;30.10;;;;;;;8.30;73.71;100267.81;4969984;28;20046;-82
2023/03/05 04:36:21;;;;;;;61.10;29.98;;;;;;;8.34;73.95;100284.50;4970702;28;20561;-82
2023/03/05 04:38:46;;;;;;;57.28;29.92;;;;;;;8.33;73.37;100272.94;4968925;28;20121;-82
2023/03/05 04:41:12;;;;;;;55.67;29.80;;;;;;;8.44;73.53;100283.66;4992979;28;20062;-82
2023/03/05 04:43:37;;;;;;;51.33;25.48;;;;;;;8.51;73.60;100284.91;5006717;28;20114;-83
2023/03/05 04:46:03;;;;;;;64.45;25.58;;;;;;;8.55;73.80;100289.06;5020403;28;20022;-81
2023/03/05 04:48:28;;;;;;;45.92;24.42;;;;;;;8.60;73.38;100292.22;5013164;28;20108;-81
2023/03/05 04:50:54;;;;;;;48.45;25.63;;;;;;;8.62;73.42;100300.97;5010430;28;20018;-82
2023/03/05 04:53:19;;;;;;;51.38;25.77;;;;;;;8.67;72.96;100290.78;5010465;28;20034;-81
2023/03/05 04:55:44;;;;;;;46.78;25.70;;;;;;;8.68;72.94;100287.09;5010840;28;20022;-81
2023/03/05 04:58:10;;;;;;;43.90;25.10;;;;;;;8.74;72.89;100297.34;5010130;28;20065;-82
2023/03/05 05:00:35;;;;;;;78.10;26.63;;;;;;;8.83;72.71;100295.78;5010189;28;20131;-81
2023/03/05 05:03:01;;;;;;;55.30;25.25;;;;;;;8.91;72.78;100279.06;5009893;28;20080;-81
2023/03/05 05:05:27;;;;;;;52.15;24.73;;;;;;;8.95;72.51;100285.88;5011039;28;20026;-83
2023/03/05 05:07:55;;;;;;;51.50;26.85;;;;;;;9.01;72.72;100280.03;5010624;28;20033;-82
2023/03/05 05:10:21;;;;;;;50.45;24.17;;;;;;;9.13;72.50;100284.41;4992405;28;20033;-81
2023/03/05 05:12:47;;;;;;;51.78;25.55;;;;;;;9.18;72.15;100280.38;5011039;28;20036;-83
2023/03/05 05:15:12;;;;;;;57.58;26.38;;;;;;;9.24;72.33;100277.19;5008555;28;20039;-81
2023/03/05 05:17:39;;;;;;;53.95;25.67;;;;;;;9.38;71.50;100281.44;5010544;28;20017;-83
2023/03/05 05:20:06;;;;;;;56.20;27.95;;;;;;;9.49;70.93;100278.72;5010637;28;20029;-83
2023/03/05 05:22:32;;;;;;;61.00;29.75;;;;;;;9.58;70.19;100280.66;5011240;28;20057;-84
2023/03/05 05:24:58;;;;;;;66.07;31.40;;;;;;;9.67;69.48;100279.88;5010203;28;20374;-82
2023/03/05 05:27:24;;;;;;;59.83;31.02;;;;;;;9.76;68.81;100289.84;5010610;28;20030;-83
2023/03/05 05:29:49;;;;;;;61.28;29.95;;;;;;;9.80;68.37;100288.63;5008281;28;20034;-82
2023/03/05 05:32:23;;;;;;;60.78;30.63;;;;;;;9.95;67.67;100282.94;5011933;28;20026;-81
2023/03/05 05:34:57;;;;;;;72.50;32.60;;;;;;;10.05;66.78;100276.69;5074348;27;20391;-81
2023/03/05 05:37:23;;;;;;;67.30;33.25;;;;;;;10.10;66.00;100278.94;5070198;28;20037;-81
2023/03/05 05:39:49;;;;;;;66.68;31.52;;;;;;;10.14;65.50;100288.50;5066224;28;20049;-82
2023/03/05 05:42:19;;;;;;;74.30;33.08;;;;;;;10.18;64.91;100284.59;5070264;28;20026;-82
2023/03/05 05:44:46;;;;;;;66.78;31.27;;;;;;;10.12;64.89;100279.69;5068023;28;20030;-83
2023/03/05 05:47:12;;;;;;;72.18;31.88;;;;;;;10.22;64.89;100294.06;5053841;28;20029;-83
2023/03/05 05:49:37;;;;;;;65.93;33.15;;;;;;;10.21;65.57;100303.13;5047867;28;20400;-82
2023/03/05 05:52:03;;;;;;;70.78;31.90;;;;;;;10.24;66.23;100301.00;5046297;28;20026;-82
2023/03/05 05:54:28;;;;;;;75.93;34.80;;;;;;;10.24;66.52;100292.94;5045850;28;20025;-81
2023/03/05 05:56:54;;;;;;;65.97;32.58;;;;;;;10.30;66.71;100299.66;5046452;28;20091;-81
2023/03/05 05:59:19;;;;;;;68.20;33.97;;;;;;;10.35;66.30;100300.09;5046539;28;20025;-88
2023/03/05 06:01:45;;;;;;;71.60;34.88;;;;;;;10.34;66.30;100307.31;5062515;28;20029;-83
2023/03/05 06:04:10;;;;;;;68.20;34.35;;;;;;;10.39;66.06;100309.63;5046144;28;20040;-83
2023/03/05 06:06:35;;;;;;;73.10;37.00;;;;;;;10.32;66.32;100303.06;5046304;28;20025;-85
2023/03/05 06:09:01;;;;;;;77.70;37.72;;;;;;;10.29;66.27;100303.31;5045719;28;20032;-83
2023/03/05 06:11:27;;;;;;;56.80;32.25;;;;;;;10.37;66.09;100312.44;5046055;28;20032;-83
2023/03/05 06:13:52;;;;;;;67.28;34.30;;;;;;;10.36;65.34;100305.38;5045799;28;20032;-86
2023/03/05 06:16:22;;;;;;;62.88;33.10;;;;;;;10.33;65.16;100316.38;5046586;28;20029;-83
2023/03/05 06:18:48;;;;;;;64.82;33.25;;;;;;;10.28;65.65;100304.28;5045496;28;20026;-83
2023/03/05 06:21:16;;;;;;;62.08;32.28;;;;;;;10.42;65.01;100313.88;5046775;28;20033;-83
2023/03/05 06:23:42;;;;;;;58.63;30.45;;;;;;;10.45;64.74;100317.16;5042687;28;20025;-80
2023/03/05 06:26:10;;;;;;;65.38;32.60;;;;;;;10.35;64.42;100302.78;5046150;28;20500;-83
2023/03/05 06:28:36;;;;;;;83.68;32.88;;;;;;;10.49;63.78;100320.44;5044580;28;20042;-85
2023/03/05 06:31:21;;;;;;;74.03;32.90;;;;;;;10.58;64.27;100317.78;5046163;28;20514;-87
2023/03/05 06:33:48;;;;;;;64.13;32.80;;;;;;;10.59;63.92;100308.75;5047410;28;20154;-86
2023/03/05 06:36:17;;;;;;;80.40;35.95;;;;;;;10.77;62.93;100315.22;5050937;28;20037;-89
2023/03/05 06:38:43;;;;;;;73.22;36.17;;;;;;;10.69;62.66;100293.53;5051570;28;20034;-85
2023/03/05 06:41:13;;;;;;;71.63;33.08;;;;;;;10.54;63.41;100323.59;5070737;28;20059;-82
2023/03/05 06:43:41;;;;;;;72.65;33.45;;;;;;;10.57;62.92;100307.19;5069717;28;20013;-85
2023/03/05 06:46:14;;;;;;;58.08;28.90;;;;;;;10.63;62.82;100315.56;5034474;28;20030;-85
2023/03/05 06:48:39;;;;;;;85.10;31.30;;;;;;;10.56;63.13;100306.31;5019535;28;20516;-84
2023/03/05 06:51:15;;;;;;;81.53;35.85;;;;;;;10.70;63.38;100308.66;5032530;28;20033;-83
2023/03/05 06:53:41;;;;;;;70.90;31.67;;;;;;;10.70;62.76;100314.03;5031916;28;20029;-86
2023/03/05 06:56:07;;;;;;;60.38;28.30;;;;;;;10.64;62.49;100309.19;5031013;28;20358;-85
2023/03/05 06:58:32;;;;;;;66.72;32.85;;;;;;;10.61;62.90;100304.06;5032827;28;20059;-86
2023/03/05 07:00:58;;;;;;;63.58;31.60;;;;;;;10.57;63.00;100307.19;5032249;28;20117;-89
2023/03/05 07:03:23;;;;;;;66.78;31.90;;;;;;;10.65;63.54;100316.28;5031275;28;20037;-87
2023/03/05 07:05:49;;;;;;;62.10;31.08;;;;;;;10.67;63.88;100314.31;5033338;28;20479;-87
2023/03/05 07:08:14;;;;;;;75.00;33.63;;;;;;;10.70;64.17;100316.72;5033241;28;20080;-90
2023/03/05 07:10:41;;;;;;;78.22;33.22;;;;;;;10.69;63.63;100306.13;5032695;28;20083;-86
2023/03/05 07:13:08;;;;;;;63.00;32.97;;;;;;;10.80;63.63;100304.19;5031462;28;20477;-89
2023/03/05 07:15:36;;;;;;;76.22;31.95;;;;;;;10.73;63.30;100286.88;5029267;28;20079;-88
2023/03/05 07:18:01;;;;;;;61.30;31.80;;;;;;;10.86;63.65;100298.28;5029090;28;20785;-83
2023/03/05 07:20:28;;;;;;;65.97;31.42;;;;;;;10.91;63.33;100290.66;5029106;28;20045;-87
2023/03/05 07:22:53;;;;;;;68.00;30.83;;;;;;;11.04;62.80;100285.03;5031150;28;20125;-87
2023/03/05 07:25:20;;;;;;;69.22;32.58;;;;;;;11.25;63.14;100282.28;5033657;28;20112;-90
2023/03/05 07:27:46;;;;;;;61.95;31.17;;;;;;;11.31;62.35;100281.72;5013622;28;20038;-81
2023/03/05 07:30:12;;;;;;;81.47;32.70;;;;;;;11.34;63.01;100287.66;5030783;28;20046;-86
2023/03/05 07:32:37;;;;;;;78.45;32.70;;;;;;;11.56;62.03;100283.06;5017647;28;20099;-88
2023/03/05 07:35:03;;;;;;;68.22;31.45;;;;;;;11.65;61.71;100274.16;5038184;28;20055;-85
2023/03/05 07:37:28;;;;;;;61.38;32.67;;;;;;;11.56;61.20;100270.41;5043076;28;20068;-86
2023/03/05 07:39:54;;;;;;;78.35;33.15;;;;;;;11.64;61.40;100275.97;5051725;28;20028;-86
2023/03/05 07:42:19;;;;;;;86.43;33.33;;;;;;;11.55;61.63;100270.56;5045159;28;20050;-85
2023/03/05 07:44:45;;;;;;;70.05;34.80;;;;;;;11.57;61.86;100272.13;5029941;28;20021;-83
2023/03/05 07:47:10;;;;;;;72.88;32.70;;;;;;;11.69;61.44;100256.69;5030106;28;20041;-85
2023/03/05 07:49:35;;;;;;;92.55;41.20;;;;;;;11.81;61.08;100259.13;5029399;28;20047;-86
2023/03/05 07:52:01;;;;;;;67.25;32.15;;;;;;;11.93;60.48;100257.16;5028693;28;20621;-88
2023/03/05 07:54:26;;;;;;;73.13;33.53;;;;;;;11.96;60.81;100271.19;5032424;28;20029;-88
2023/03/05 07:56:54;;;;;;;71.10;33.45;;;;;;;12.11;60.58;100268.09;5033770;28;20026;-87
2023/03/05 07:59:19;;;;;;;63.15;31.50;;;;;;;12.20;60.62;100265.34;5032586;28;20065;-86
2023/03/05 08:01:45;;;;;;;67.20;30.83;;;;;;;12.24;60.00;100260.53;5032716;28;20056;-85
2023/03/05 08:04:11;;;;;;;77.93;34.65;;;;;;;12.34;59.63;100261.38;5035322;28;20040;-87
2023/03/05 08:06:40;;;;;;;74.07;33.90;;;;;;;12.43;59.56;100261.34;5041671;28;20021;-88
2023/03/05 08:09:06;;;;;;;73.28;32.72;;;;;;;12.40;59.77;100260.78;5043220;28;20041;-83
2023/03/05 08:11:31;;;;;;;62.13;32.72;;;;;;;12.39;59.53;100264.47;5032985;28;20424;-85
2023/03/05 08:13:58;;;;;;;56.10;31.35;;;;;;;12.38;59.85;100254.69;5031692;28;20030;-88
2023/03/05 08:16:25;;;;;;;73.78;32.00;;;;;;;12.42;59.76;100258.78;5030431;28;20511;-83
2023/03/05 08:18:56;;;;;;;57.90;31.25;;;;;;;12.47;59.90;100256.53;5031013;28;20041;-86
2023/03/05 08:21:28;;;;;;;68.90;31.83;;;;;;;12.57;59.75;100251.09;5035383;28;20144;-85
2023/03/05 08:23:57;;;;;;;72.20;33.90;;;;;;;12.57;59.76;100255.47;5031651;28;20480;-80
2023/03/05 08:26:26;;;;;;;58.67;31.98;;;;;;;12.52;60.22;100262.31;5031704;28;20128;-86
2023/03/05 08:28:51;;;;;;;72.65;34.63;;;;;;;12.60;60.25;100254.31;5030636;28;20025;-87
2023/03/05 08:31:20;;;;;;;81.28;36.63;;;;;;;12.43;60.56;100249.72;5030606;28;20057;-83
2023/03/05 08:33:45;;;;;;;77.35;36.33;;;;;;;12.52;60.76;100251.53;5032944;28;20057;-82
2023/03/05 08:36:12;;;;;;;79.03;38.72;;;;;;;12.60;60.93;100240.03;5051562;28;20018;-82
2023/03/05 08:38:37;;;;;;;76.78;37.92;;;;;;;12.81;60.04;100246.03;5049872;28;20055;-84
2023/03/05 08:41:03;;;;;;;79.55;34.42;;;;;;;12.74;59.57;100235.00;5032970;28;20093;-84
2023/03/05 08:43:29;;;;;;;83.43;37.08;;;;;;;12.83;59.28;100225.13;5029737;28;20105;-85
2023/03/05 08:45:55;;;;;;;75.18;37.10;;;;;;;12.91;58.66;100226.09;5029932;28;20037;-84
2023/03/05 08:48:21;;;;;;;78.40;37.22;;;;;;;13.06;58.69;100232.69;5029521;28;20037;-84
2023/03/05 08:50:46;;;;;;;67.03;32.20;;;;;;;13.14;57.87;100228.44;5029834;28;20037;-85
2023/03/05 08:53:11;;;;;;;62.13;32.58;;;;;;;13.26;57.14;100232.63;5029406;28;20168;-83
2023/03/05 08:55:37;;;;;;;62.40;33.78;;;;;;;13.41;57.22;100217.59;5029527;28;20022;-84
2023/03/05 08:58:03;;;;;;;75.40;37.40;;;;;;;13.40;56.77;100218.59;5030125;28;20484;-84
2023/03/05 09:00:29;;;;;;;73.15;31.63;;;;;;;13.36;55.43;100230.72;5028611;28;20071;-82
2023/03/05 09:02:54;;;;;;;57.00;31.70;;;;;;;13.42;54.92;100216.59;5029183;28;20079;-84
2023/03/05 09:05:20;;;;;;;57.03;29.75;;;;;;;13.50;53.56;100222.94;5030216;28;20124;-83
2023/03/05 09:07:46;;;;;;;74.78;29.48;;;;;;;13.62;52.63;100216.28;5029223;28;20029;-82
2023/03/05 09:10:13;;;;;;;59.42;28.95;;;;;;;13.87;52.34;100209.25;5030378;28;20040;-84
2023/03/05 09:12:39;;;;;;;61.88;28.25;;;;;;;14.06;51.69;100214.50;5029638;28;20063;-86
2023/03/05 09:15:07;;;;;;;59.53;27.83;;;;;;;13.98;50.90;100209.00;5029784;28;20029;-88
2023/03/05 09:17:36;;;;;;;56.78;28.33;;;;;;;14.14;50.84;100201.03;5029137;28;20487;-85
2023/03/05 09:20:03;;;;;;;57.75;27.45;;;;;;;14.36;50.07;100198.84;5029708;28;20033;-86
2023/03/05 09:22:29;;;;;;;63.40;25.92;;;;;;;14.60;49.62;100190.84;5031992;28;20504;-85
2023/03/05 09:24:54;;;;;;;68.07;27.13;;;;;;;14.69;49.64;100193.44;5030121;28;20036;-83
2023/03/05 09:27:20;;;;;;;51.00;26.95;;;;;;;14.66;48.84;100204.59;5029530;28;20018;-82
2023/03/05 09:29:45;;;;;;;48.83;27.13;;;;;;;14.73;49.06;100187.72;5029509;28;20061;-87
2023/03/05 09:32:11;;;;;;;52.38;26.13;;;;;;;14.87;48.64;100196.06;5035641;28;20026;-83
2023/03/05 09:34:36;;;;;;;53.42;27.33;;;;;;;14.99;48.92;100192.03;5047061;28;20064;-84
2023/03/05 09:37:02;;;;;;;46.65;25.55;;;;;;;15.18;48.67;100188.22;5042980;28;20036;-85
2023/03/05 09:39:28;;;;;;;53.85;27.42;;;;;;;15.35;48.58;100192.66;5030452;28;20140;-85
2023/03/05 09:41:53;;;;;;;54.92;26.17;;;;;;;15.38;48.06;100194.22;5030542;28;20037;-84
2023/03/05 09:44:40;;;;;;;75.93;29.20;;;;;;;15.43;48.50;100178.28;5029360;28;20037;-83
2023/03/05 09:47:24;;;;;;;52.00;27.40;;;;;;;15.63;48.08;100187.81;5033261;28;20099;-86
2023/03/05 09:50:17;;;;;;;53.45;30.20;;;;;;;15.72;47.59;100192.22;5034903;28;20488;-85
2023/03/05 09:52:53;;;;;;;67.45;31.83;;;;;;;15.58;47.95;100185.63;5052978;28;20024;-83
2023/03/05 09:55:28;;;;;;;86.45;31.45;;;;;;;15.46;48.38;100177.94;5052592;28;20041;-83
2023/03/05 09:58:01;;;;;;;75.55;32.92;;;;;;;15.46;48.67;100173.38;5044536;28;20040;-85
2023/03/05 10:00:45;;;;;;;58.38;29.30;;;;;;;15.53;48.41;100176.31;5033926;28;20022;-84
2023/03/05 10:03:21;;;;;;;63.40;32.45;;;;;;;15.50;48.45;100166.66;5033299;28;20046;-84
2023/03/05 10:06:02;;;;;;;70.20;31.98;;;;;;;15.65;48.70;100153.28;5031462;28;20111;-84
2023/03/05 10:08:43;;;;;;;62.25;31.05;;;;;;;15.88;47.97;100165.13;5029760;28;20104;-84
2023/03/05 10:11:24;;;;;;;59.80;31.58;;;;;;;15.83;47.72;100155.81;5029944;28;20021;-83
2023/03/05 10:13:51;;;;;;;63.25;31.45;;;;;;;15.75;47.70;100153.94;5029546;28;20116;-85
2023/03/05 10:16:22;;;;;;;61.53;32.38;;;;;;;15.61;47.93;100146.50;5029412;28;20469;-85
2023/03/05 10:19:38;;;;;;;55.88;30.75;;;;;;;15.52;48.43;100152.91;5040962;28;20021;-83
2023/03/05 10:22:29;;;;;;;73.75;33.28;;;;;;;15.71;48.34;100152.59;5034920;28;20068;-84
2023/03/05 10:25:36;;;;;;;62.97;31.00;;;;;;;15.64;47.94;100148.88;5032114;28;20048;-83
2023/03/05 10:28:16;;;;;;;55.92;29.95;;;;;;;15.61;48.13;100152.75;5009041;28;20045;-82
2023/03/05 10:31:15;;;;;;;61.47;30.23;;;;;;;15.73;47.87;100140.56;5018749;28;20048;-83
2023/03/05 10:33:58;;;;;;;65.03;31.13;;;;;;;15.71;48.25;100137.19;4969822;28;20057;-83
2023/03/05 10:36:45;;;;;;;59.13;29.08;;;;;;;15.96;47.67;100124.44;4957396;29;20529;-85
2023/03/05 10:39:16;;;;;;;69.65;33.30;;;;;;;15.91;47.96;100126.81;4952000;29;20047;-84
2023/03/05 10:42:06;;;;;;;77.82;32.92;;;;;;;15.45;48.17;100105.78;4951872;29;20066;-83
2023/03/05 10:44:49;;;;;;;74.80;32.55;;;;;;;15.30;48.88;100123.72;4951532;28;20044;-83
2023/03/05 10:47:39;;;;;;;65.00;34.58;;;;;;;14.95;49.17;100124.84;4952043;29;20038;-83
2023/03/05 10:50:18;;;;;;;75.95;34.72;;;;;;;14.54;50.31;100110.31;4951800;29;20598;-83
2023/03/05 10:52:47;;;;;;;77.03;33.25;;;;;;;14.57;50.33;100107.28;4951336;28;20082;-85
2023/03/05 10:55:18;;;;;;;65.88;33.65;;;;;;;14.59;50.02;100113.38;4951330;28;20039;-83
2023/03/05 10:57:43;;;;;;;84.32;41.33;;;;;;;14.53;50.33;100111.31;4976837;28;20042;-86
2023/03/05 11:00:19;;;;;;;72.57;32.03;;;;;;;14.41;50.03;100112.63;4990025;28;20505;-84
2023/03/05 11:02:56;;;;;;;63.38;32.05;;;;;;;14.23;49.77;100101.00;4990685;28;20034;-84
2023/03/05 11:05:36;;;;;;;88.18;33.22;;;;;;;14.23;49.87;100101.84;4989995;28;20524;-84
2023/03/05 11:08:24;;;;;;;66.78;31.45;;;;;;;14.31;49.83;100106.47;4990209;28;20034;-84
2023/03/05 11:11:08;;;;;;;71.05;30.20;;;;;;;14.09;50.04;100089.78;5011030;28;20042;-85
2023/03/05 11:13:50;;;;;;;73.97;30.60;;;;;;;14.10;50.23;100082.50;5032303;28;20030;-86
2023/03/05 11:16:19;;;;;;;80.60;31.58;;;;;;;14.11;50.12;100093.16;5033284;28;20374;-84
2023/03/05 11:18:45;;;;;;;62.40;30.48;;;;;;;14.01;50.39;100078.91;5033694;28;20057;-85